Terminal Aerodrome Forecast
Issued by NWS Charleston, WV

Current Version | Previous Version | Text Only | Print | Product List | Glossary Off
Versions: 1 2 3 4 5 6 7 8 9 10 11 12 13 14 15 16 17 18 19 20 21 22

000
FTUS41 KRLX 211400 AAA
TAFPKB
TAF AMD
KPKB 211433Z 2115/2212 00000KT P6SM SCT035
     FM220300 00000KT 4SM BR SCT250
     FM220600 00000KT 1/2SM FG SCT250
     FM221100 VRB03KT 1/4SM FG FEW035=

USA.gov is the U.S. government's official web portal to all federal, state and local government web resources and services.